Nobe, West Virginia
Current Conditions -  °F | °C
As of 10:53 AM on Wednesday 28 Jan 2015 (Local Time) from KPKB Reporting Station
Clear Clear  
Wind Chill: 20°   Ceiling: Unl
Heat Index: 20°   Visibility: 10mi
Dew Point: 12°   Wind: 3mph
Humidity: 71%   Direction: 170°S
Pressure: 30.42"   Gusts: NA
Location:  38.9756°N, 80.9915°W
Report Text: KPKB 281553Z 17003KT 10SM CLR M07/M11 A3042 RMK AO2 SNB1455E06 SLP314 P0000 T10671111
Loading
Personal Weather Stations






























Interactive Weather Map New forecast layout! Learn more

10-Day Weather Forecast

Advertisements
Track Severe Weather on mobile